Scroll down
FLIGHT INFORMATION
PMDG Flight Operations

PFO1204

At Arrival Gate

KSFO
 KIAD
DATE: 2018-08-20
GATE:  -
GATE DEPARTURE: 19:21
TAKEOFF: 19:41
DATE: 2018-08-21
GATE: R19
LANDING: 00:03
GATE ARRIVAL: 00:12
FLIGHT DATA
Crew: 
Speed: 
524 kts
Altitude: 
35,034 ft
Stage Length: 
2,096.6 nm
Block Time: 
4.9 hrs
Flight Time: 
4.4 hrs
Fuel Used: 
94,882 lb
Cleared Route: 
TRACK DATA
50,000 ft 1,000 kts
AIRCRAFT INFO AND CUMULATIVE STATS
Aircraft Type: 
B748F
Registration: 
SELCAL: 
MSN/LN: 
0 / 2
Total Flights: 
6
Total Block Time: 
52.1 hrs
Total Flight Time: 
50.7 hrs
Total Fuel Time: 
1,013,403 lb
DATALINK LOG | Newest first | Current as of: 2021-01-22 00:53:16
LABEL SEQUENCE CONTENT Dn/Up
QD122500:12 25.2▼ Dn
QC032200:03▼ Dn
2U3700KIAD 200352Z 04008KT 10SM BKN013 OVC045 22/21 A3004 RMK AO2 SLP171 T02170206▲ Up
2S4045KIAD▼ Dn
GA3154YOUR ASSIGNMENT IS STILL REMOTE STAND R19▲ Up
GR3550KIAD▼ Dn
GA2649REMOTE STAND R19▲ Up
GR3052KIAD▼ Dn
2U1235KIAD 200352Z 04008KT 10SM BKN013 OVC045 22/21 A3004 RMK AO2 SLP171 T02170206▲ Up
2S1654KIAD▼ Dn
5U1239KIAD 200215Z 2002/2106 04007KT P6SM SCT030 BKN090 BKN250 FM200400 05005KT P6SM BKN025 BKN080 FM200700 VRB03KT P6SM BKN015 BKN060 FM201200 06006KT P6SM SCT010 BKN030 FM201800 09007KT P6SM BKN035 FM210000 11005KT P6SM BKN025▲ Up
5S1626KIAD▼ Dn
2U1139KIAD 200305Z 05007KT 10SM BKN013 BKN030 BKN055 BKN250 22/21 A3005 RMK AO2 T02170206▲ Up
2S1622KIAD▼ Dn
QB411719:41▼ Dn
QA028019:28 120▼ Dn
QA213519:21 120.3▼ Dn
2U0134KIAD 192352Z 03007KT 10SM FEW033 SCT095 BKN250 23/20 A3000 RMK AO2 SLP155 T02330200 10278 20233 51015▲ Up
2U0134KSFO 192356Z 30020KT 10SM FEW008 FEW200 17/12 A2988 RMK AO2 PK WND 29027/2319 SLP119 T01670117 10200 20161 56016▲ Up
2S0616KSFO KIAD▼ Dn


AIRCRAFT HISTORY
FLIGHT DATE FLIGHT NO. ORIGIN DESTINATION CLEARED ROUTE BLOCK TIME FLIGHT TIME FUEL USED PILOT
2018-08-24PFO24KLAX ZBAA 12.8 hrs12.4 hrs246,438 lbMichael Roth
2018-08-23PFO23KIAD KLAX 4.9 hrs4.7 hrs96,956 lbMichael Roth
2018-08-20PFO1204KSFO KIAD 4.9 hrs4.4 hrs94,882 lbMark Adeane
2018-08-19PFO3265YSSY KSFO 13.2 hrs12.9 hrs285,878 lbMark Adeane
2018-08-04PFO804KLAX YSSY 14.5 hrs14.2 hrs250,945 lbKyle Rodgers
2018-08-04PFO804KPAE KLAX 2.4 hrs2.1 hrs38,304 lbKyle Rodgers